createdAt,value
2023-04-15T00:01:12.285Z,100455.84
2023-04-15T00:03:39.938Z,100471.38
2023-04-15T00:06:07.836Z,100488.56
2023-04-15T00:08:34.861Z,100481.06
2023-04-15T00:11:05.755Z,100480.22
2023-04-15T00:13:34.307Z,100488.25
2023-04-15T00:16:01.786Z,100490.19
2023-04-15T00:18:29.930Z,100492.16
2023-04-15T00:20:57.185Z,100488.25
2023-04-15T00:23:24.439Z,100480.22
2023-04-15T00:25:52.096Z,100505.19
2023-04-15T00:28:19.305Z,100516.78
2023-04-15T00:30:46.529Z,100505.06
2023-04-15T00:33:14.179Z,100528.38
2023-04-15T00:35:41.580Z,100513.41
2023-04-15T00:38:09.778Z,100519.50
2023-04-15T00:40:37.799Z,100529.47
2023-04-15T00:43:05.753Z,100523.38
2023-04-15T00:45:33.586Z,100517.81
2023-04-15T00:48:00.928Z,100522.56
2023-04-15T00:50:28.154Z,100540.03
2023-04-15T00:52:55.530Z,100536.69
2023-04-15T00:55:22.727Z,100539.44
2023-04-15T00:57:50.827Z,100537.72
2023-04-15T01:00:18.274Z,100538.81
2023-04-15T01:02:47.481Z,100518.31
2023-04-15T01:05:17.459Z,100549.34
2023-04-15T01:07:44.543Z,100544.91
2023-04-15T01:10:11.979Z,100546.81
2023-04-15T01:12:39.819Z,100556.81
2023-04-15T01:15:08.277Z,100560.16
2023-04-15T01:17:35.612Z,100565.41
2023-04-15T01:20:03.176Z,100554.31
2023-04-15T01:22:31.770Z,100557.66
2023-04-15T01:25:09.853Z,100557.06
2023-04-15T01:27:42.521Z,100569.59
2023-04-15T01:30:10.766Z,100560.69
2023-04-15T01:32:38.301Z,100572.06
2023-04-15T01:35:24.508Z,100544.56
2023-04-15T01:37:52.670Z,100579.00
2023-04-15T01:40:21.524Z,100588.09
2023-04-15T01:42:49.943Z,100578.09
2023-04-15T01:45:18.410Z,100575.28
2023-04-15T01:47:46.671Z,100597.44
2023-04-15T01:50:15.615Z,100596.84
2023-04-15T01:52:43.940Z,100573.56
2023-04-15T01:55:12.634Z,100579.72
2023-04-15T01:57:41.511Z,100596.63
2023-04-15T02:00:10.208Z,100591.31
2023-04-15T02:02:44.929Z,100594.66
2023-04-15T02:05:13.435Z,100609.06
2023-04-15T02:07:43.732Z,100607.66
2023-04-15T02:10:13.712Z,100610.97
2023-04-15T02:12:42.232Z,100629.03
2023-04-15T02:15:10.921Z,100631.25
2023-04-15T02:17:39.355Z,100633.75
2023-04-15T02:20:10.827Z,100609.03
2023-04-15T02:22:39.039Z,100623.22
2023-04-15T02:25:09.302Z,100650.94
2023-04-15T02:27:38.346Z,100640.66
2023-04-15T02:30:07.544Z,100643.91
2023-04-15T02:32:38.274Z,100639.47
2023-04-15T02:35:09.034Z,100647.25
2023-04-15T02:37:43.821Z,100651.97
2023-04-15T02:40:13.566Z,100653.38
2023-04-15T02:42:42.791Z,100654.97
2023-04-15T02:45:13.989Z,100662.19
2023-04-15T02:47:44.046Z,100665.78
2023-04-15T02:50:13.680Z,100663.53
2023-04-15T02:52:44.583Z,100659.59
2023-04-15T02:55:13.485Z,100671.81
2023-04-15T02:57:41.978Z,100681.25
2023-04-15T03:00:12.483Z,100685.75
2023-04-15T03:02:46.988Z,100668.28
2023-04-15T03:05:15.682Z,100663.75
2023-04-15T03:07:50.410Z,100666.00
2023-04-15T03:10:19.682Z,100672.16
2023-04-15T03:12:48.876Z,100696.34
2023-04-15T03:15:22.635Z,100702.25
2023-04-15T03:17:53.682Z,100695.13
2023-04-15T03:20:22.096Z,100696.78
2023-04-15T03:22:50.756Z,100703.38
2023-04-15T03:25:21.115Z,100696.03
2023-04-15T03:27:49.405Z,100709.94
2023-04-15T03:30:18.513Z,100714.00
2023-04-15T03:32:47.498Z,100708.41
2023-04-15T03:35:16.528Z,100725.09
2023-04-15T03:37:44.871Z,100706.94
2023-04-15T03:40:13.369Z,100728.63
2023-04-15T03:42:41.657Z,100726.44
2023-04-15T03:45:10.431Z,100730.03
2023-04-15T03:47:38.857Z,100723.66
2023-04-15T03:50:07.692Z,100735.19
2023-04-15T03:52:36.001Z,100745.78
2023-04-15T03:55:04.519Z,100707.97
2023-04-15T03:57:33.513Z,100720.31
2023-04-15T04:00:01.737Z,100751.34
2023-04-15T04:02:40.284Z,100751.63
2023-04-15T04:05:09.309Z,100770.22
2023-04-15T04:07:37.610Z,100761.69
2023-04-15T04:10:06.626Z,100781.47
2023-04-15T04:12:34.779Z,100785.28
2023-04-15T04:15:03.293Z,100774.91
2023-04-15T04:17:31.661Z,100774.91
2023-04-15T04:20:00.007Z,100774.38
2023-04-15T04:22:28.505Z,100762.16
2023-04-15T04:24:57.155Z,100762.03
2023-04-15T04:27:26.375Z,100771.00
2023-04-15T04:29:54.830Z,100788.38
2023-04-15T04:32:23.057Z,100777.56
2023-04-15T04:34:51.520Z,100787.31
2023-04-15T04:37:19.827Z,100768.63
2023-04-15T04:39:48.120Z,100788.88
2023-04-15T04:42:16.898Z,100799.38
2023-04-15T04:44:45.255Z,100791.13
2023-04-15T04:47:14.202Z,100819.72
2023-04-15T04:49:42.441Z,100803.94
2023-04-15T04:52:11.807Z,100814.16
2023-04-15T04:54:40.089Z,100814.50
2023-04-15T04:57:08.443Z,100817.84
2023-04-15T04:59:36.741Z,100830.69
2023-04-15T05:02:05.495Z,100819.00
2023-04-15T05:04:34.534Z,100835.41
2023-04-15T05:07:02.850Z,100836.16
2023-04-15T05:09:32.684Z,100835.91
2023-04-15T05:12:01.530Z,100854.78
2023-04-15T05:14:29.976Z,100847.84
2023-04-15T05:16:58.550Z,100845.41
2023-04-15T05:19:27.265Z,100850.13
2023-04-15T05:21:55.706Z,100854.06
2023-04-15T05:24:24.153Z,100848.00
2023-04-15T05:26:52.476Z,100853.50
2023-04-15T05:29:21.000Z,100855.13
2023-04-15T05:31:49.914Z,100869.34
2023-04-15T05:34:18.228Z,100864.16
2023-04-15T05:36:46.504Z,100838.56
2023-04-15T05:39:14.794Z,100856.97
2023-04-15T05:41:43.096Z,100871.97
2023-04-15T05:44:11.777Z,100886.06
2023-04-15T05:46:40.191Z,100877.69
2023-04-15T05:49:08.574Z,100880.78
2023-04-15T05:51:37.184Z,100889.97
2023-04-15T05:54:05.985Z,100895.25
2023-04-15T05:56:34.287Z,100888.09
2023-04-15T05:59:02.648Z,100891.16
2023-04-15T06:01:31.275Z,100888.66
2023-04-15T06:03:59.500Z,100910.97
2023-04-15T06:06:27.916Z,100908.22
2023-04-15T06:08:56.192Z,100922.91
2023-04-15T06:11:25.394Z,100929.25
2023-04-15T06:13:53.615Z,100925.81
2023-04-15T06:16:23.833Z,100939.06
2023-04-15T06:18:52.158Z,100916.22
2023-04-15T06:21:20.667Z,100925.00
2023-04-15T06:23:48.983Z,100930.03
2023-04-15T06:26:17.334Z,100944.00
2023-04-15T06:28:46.042Z,100945.41
2023-04-15T06:31:14.834Z,100952.38
2023-04-15T06:33:43.125Z,100938.97
2023-04-15T06:36:11.458Z,100953.50
2023-04-15T06:38:39.884Z,100953.72
2023-04-15T06:41:08.328Z,100939.81
2023-04-15T06:43:36.729Z,100963.00
2023-04-15T06:46:05.278Z,100966.06
2023-04-15T06:48:33.528Z,100954.78
2023-04-15T06:51:02.000Z,100965.59
2023-04-15T06:53:30.390Z,100962.78
2023-04-15T06:55:58.623Z,100951.72
2023-04-15T06:58:26.978Z,100965.41
2023-04-15T07:00:55.394Z,100964.56
2023-04-15T07:03:23.676Z,100956.50
2023-04-15T07:05:52.165Z,100973.78
2023-04-15T07:08:21.419Z,100975.47
2023-04-15T07:10:49.762Z,100946.53
2023-04-15T07:13:17.956Z,100975.00
2023-04-15T07:15:46.588Z,100957.47
2023-04-15T07:18:14.857Z,100986.16
2023-04-15T07:20:43.767Z,100988.38
2023-04-15T07:23:12.246Z,100982.31
2023-04-15T07:25:41.295Z,101000.13
2023-04-15T07:28:09.512Z,100976.72
2023-04-15T07:30:38.489Z,100990.41
2023-04-15T07:33:07.314Z,101006.03
2023-04-15T07:35:35.742Z,100994.00
2023-04-15T07:38:04.173Z,101003.44
2023-04-15T07:40:33.281Z,101005.72
2023-04-15T07:43:01.830Z,101006.34
2023-04-15T07:45:30.439Z,101010.78
2023-04-15T07:47:58.791Z,101015.00
2023-04-15T07:50:28.762Z,101009.72
2023-04-15T07:52:57.466Z,101018.63
2023-04-15T07:55:27.204Z,101006.38
2023-04-15T07:57:57.346Z,101029.69
2023-04-15T08:00:26.962Z,101009.09
2023-04-15T08:02:57.649Z,101006.88
2023-04-15T08:05:26.568Z,101033.34
2023-04-15T08:07:54.966Z,101022.28
2023-04-15T08:10:23.499Z,101028.69
2023-04-15T08:12:54.403Z,101032.03
2023-04-15T08:15:22.694Z,101026.19
2023-04-15T08:17:51.304Z,101033.69
2023-04-15T08:20:19.942Z,101039.81
2023-04-15T08:22:52.756Z,101030.56
2023-04-15T08:25:21.488Z,101028.00
2023-04-15T08:27:49.869Z,101037.72
2023-04-15T08:30:18.817Z,101043.03
2023-04-15T08:32:47.643Z,101056.91
2023-04-15T08:35:16.450Z,101024.28
2023-04-15T08:37:44.737Z,101041.22
2023-04-15T08:40:13.757Z,101049.56
2023-04-15T08:42:45.896Z,101063.25
2023-04-15T08:45:14.665Z,101060.47
2023-04-15T08:47:44.800Z,101057.91
2023-04-15T08:50:15.433Z,101056.56
2023-04-15T08:52:43.884Z,101052.41
2023-04-15T08:55:13.817Z,101060.78
2023-04-15T08:57:42.146Z,101046.88
2023-04-15T09:00:11.095Z,101077.19
2023-04-15T09:02:39.878Z,101076.44
2023-04-15T09:05:08.832Z,101076.50
2023-04-15T09:07:37.404Z,101069.50
2023-04-15T09:10:06.739Z,101082.06
2023-04-15T09:12:38.263Z,101085.34
2023-04-15T09:15:08.977Z,101073.94
2023-04-15T09:17:43.970Z,101063.13
2023-04-15T09:20:14.124Z,101083.81
2023-04-15T09:22:43.902Z,101075.06
2023-04-15T09:25:28.048Z,101088.09
2023-04-15T09:28:02.011Z,101077.00
2023-04-15T09:30:30.651Z,101088.72
2023-04-15T09:33:04.238Z,101099.81
2023-04-15T09:35:32.600Z,101087.00
2023-04-15T09:38:04.186Z,101092.28
2023-04-15T09:40:36.409Z,101081.78
2023-04-15T09:43:06.248Z,101074.81
2023-04-15T09:45:36.014Z,101084.84
2023-04-15T09:48:27.170Z,101092.34
2023-04-15T09:50:59.359Z,101075.59
2023-04-15T09:53:29.839Z,101102.88
2023-04-15T09:56:02.640Z,101094.81
2023-04-15T09:58:33.708Z,101104.50
2023-04-15T10:01:05.136Z,101113.13
2023-04-15T10:03:39.390Z,101101.97
2023-04-15T10:06:08.248Z,101115.81
2023-04-15T10:08:36.594Z,101111.94
2023-04-15T10:11:06.280Z,101095.84
2023-04-15T10:13:36.566Z,101118.16
2023-04-15T10:16:07.167Z,101103.38
2023-04-15T10:18:38.434Z,101120.44
2023-04-15T10:21:08.868Z,101127.94
2023-04-15T10:23:38.725Z,101111.22
2023-04-15T10:26:08.547Z,101133.25
2023-04-15T10:28:37.220Z,101122.38
2023-04-15T10:31:07.392Z,101127.41
2023-04-15T10:33:36.398Z,101113.75
2023-04-15T10:36:05.330Z,101129.59
2023-04-15T10:38:38.281Z,101129.91
2023-04-15T10:41:18.740Z,101144.81
2023-04-15T10:43:56.242Z,101140.31
2023-04-15T10:46:37.775Z,101133.34
2023-04-15T10:49:24.489Z,101150.69
2023-04-15T10:51:58.220Z,101161.53
2023-04-15T10:54:26.415Z,101152.22
2023-04-15T10:57:01.891Z,101162.81
2023-04-15T10:59:51.082Z,101171.69
2023-04-15T11:02:19.654Z,101168.81
2023-04-15T11:04:58.818Z,101174.69
2023-04-15T11:07:35.148Z,101165.00
2023-04-15T11:10:25.663Z,101170.38
2023-04-15T11:12:58.220Z,101175.59
2023-04-15T11:15:33.269Z,101180.63
2023-04-15T11:18:13.567Z,101190.34
2023-04-15T11:20:47.335Z,101173.84
2023-04-15T11:23:28.957Z,101172.81
2023-04-15T11:25:58.200Z,101167.81
2023-04-15T11:28:30.994Z,101173.94
2023-04-15T11:31:06.056Z,101175.13
2023-04-15T11:33:34.561Z,101176.53
2023-04-15T11:36:04.324Z,101166.16
2023-04-15T11:38:34.517Z,101170.69
2023-04-15T11:41:02.811Z,101179.31
2023-04-15T11:43:32.637Z,101180.16
2023-04-15T11:46:02.561Z,101181.25
2023-04-15T11:48:34.351Z,101191.75
2023-04-15T11:51:08.159Z,101202.00
2023-04-15T11:53:47.400Z,101175.56
2023-04-15T11:56:26.476Z,101197.59
2023-04-15T11:59:00.929Z,101198.41
2023-04-15T12:01:36.959Z,101204.00
2023-04-15T12:04:15.883Z,101191.72
2023-04-15T12:06:43.618Z,101187.81
2023-04-15T12:09:15.551Z,101206.19
2023-04-15T12:11:48.401Z,101212.03
2023-04-15T12:14:32.650Z,101189.50
2023-04-15T12:17:02.984Z,101210.78
2023-04-15T12:19:39.671Z,101207.13
2023-04-15T12:22:13.046Z,101208.84
2023-04-15T12:24:41.449Z,101209.09
2023-04-15T12:27:11.542Z,101224.13
2023-04-15T12:29:40.931Z,101222.44
2023-04-15T12:32:13.000Z,101235.16
2023-04-15T12:34:42.644Z,101226.72
2023-04-15T12:37:11.993Z,101232.00
2023-04-15T12:39:41.636Z,101223.03
2023-04-15T12:42:09.733Z,101218.25
2023-04-15T12:44:37.717Z,101246.16
2023-04-15T12:47:05.526Z,101223.59
2023-04-15T12:49:34.547Z,101235.84
2023-04-15T12:52:02.935Z,101241.13
2023-04-15T12:54:31.880Z,101240.53
2023-04-15T12:56:59.767Z,101243.28
2023-04-15T12:59:27.260Z,101234.84
2023-04-15T13:01:55.656Z,101232.97
2023-04-15T13:04:23.440Z,101241.59
2023-04-15T13:06:50.899Z,101237.16
2023-04-15T13:09:18.160Z,101223.00
2023-04-15T13:11:45.468Z,101222.66
2023-04-15T13:14:14.083Z,101229.63
2023-04-15T13:16:41.707Z,101234.09
2023-04-15T13:19:09.146Z,101226.31
2023-04-15T13:21:38.549Z,101237.75
2023-04-15T13:24:07.480Z,101227.13
2023-04-15T13:26:35.158Z,101245.78
2023-04-15T13:29:02.359Z,101250.81
2023-04-15T13:31:29.596Z,101247.97
2023-04-15T13:33:57.930Z,101261.53
2023-04-15T13:36:25.306Z,101262.41
2023-04-15T13:38:52.429Z,101265.06
2023-04-15T13:41:21.411Z,101275.09
2023-04-15T13:43:48.591Z,101282.31
2023-04-15T13:46:16.334Z,101283.41
2023-04-15T13:48:43.741Z,101294.53
2023-04-15T13:51:11.156Z,101276.53
2023-04-15T13:53:39.600Z,101280.75
2023-04-15T13:56:11.013Z,101277.44
2023-04-15T13:58:38.454Z,101289.78
2023-04-15T14:01:07.030Z,101286.53
2023-04-15T14:03:36.945Z,101286.03
2023-04-15T14:06:05.745Z,101267.56
2023-04-15T14:08:33.497Z,101266.97
2023-04-15T14:11:00.904Z,101286.09
2023-04-15T14:13:28.179Z,101282.69
2023-04-15T14:15:55.589Z,101292.44
2023-04-15T14:18:23.066Z,101289.63
2023-04-15T14:20:50.193Z,101286.34
2023-04-15T14:23:17.264Z,101269.34
2023-04-15T14:25:46.711Z,101289.25
2023-04-15T14:28:15.947Z,101305.25
2023-04-15T14:30:43.276Z,101288.22
2023-04-15T14:33:10.807Z,101301.34
2023-04-15T14:35:38.224Z,101315.31
2023-04-15T14:38:06.268Z,101309.72
2023-04-15T14:40:34.106Z,101306.63
2023-04-15T14:43:01.377Z,101316.41
2023-04-15T14:45:28.708Z,101304.97
2023-04-15T14:47:56.299Z,101306.97
2023-04-15T14:50:23.506Z,101308.06
2023-04-15T14:52:50.635Z,101285.19
2023-04-15T14:55:17.996Z,101302.19
2023-04-15T14:57:45.081Z,101293.22
2023-04-15T15:00:15.799Z,101309.97
2023-04-15T15:02:44.012Z,101308.34
2023-04-15T15:05:12.225Z,101306.16
2023-04-15T15:07:43.103Z,101318.66
2023-04-15T15:10:10.635Z,101311.13
2023-04-15T15:12:37.773Z,101293.88
2023-04-15T15:15:15.814Z,101323.94
2023-04-15T15:17:54.450Z,101308.59
2023-04-15T15:20:22.087Z,101323.38
2023-04-15T15:22:49.540Z,101311.13
2023-04-15T15:25:16.800Z,101321.16
2023-04-15T15:27:44.373Z,101337.66
2023-04-15T15:30:12.861Z,101336.03
2023-04-15T15:32:41.165Z,101342.44
2023-04-15T15:35:10.231Z,101341.59
2023-04-15T15:37:38.225Z,101337.69
2023-04-15T15:40:06.057Z,101342.69
2023-04-15T15:42:33.892Z,101324.00
2023-04-15T15:45:01.301Z,101334.31
2023-04-15T15:47:28.458Z,101317.78
2023-04-15T15:49:55.723Z,101323.81
2023-04-15T15:52:22.882Z,101332.19
2023-04-15T15:54:50.194Z,101326.63
2023-04-15T15:57:17.289Z,101322.66
2023-04-15T15:59:44.833Z,101338.34
2023-04-15T16:02:14.140Z,101343.72
2023-04-15T16:04:43.351Z,101334.53
2023-04-15T16:07:11.847Z,101342.25
2023-04-15T16:09:41.109Z,101343.91
2023-04-15T16:12:08.591Z,101350.94
2023-04-15T16:14:36.558Z,101345.88
2023-04-15T16:17:03.736Z,101360.63
2023-04-15T16:19:31.249Z,101371.22
2023-04-15T16:22:00.174Z,101371.78
2023-04-15T16:24:28.393Z,101372.47
2023-04-15T16:26:58.771Z,101381.44
2023-04-15T16:29:26.628Z,101392.94
2023-04-15T16:31:55.116Z,101390.13
2023-04-15T16:34:22.170Z,101402.44
2023-04-15T16:36:49.465Z,101386.28
2023-04-15T16:39:17.131Z,101404.69
2023-04-15T16:41:44.228Z,101401.63
2023-04-15T16:44:11.336Z,101401.59
2023-04-15T16:46:40.764Z,101403.31
2023-04-15T16:49:08.170Z,101417.78
2023-04-15T16:51:35.437Z,101419.75
2023-04-15T16:54:02.559Z,101417.81
2023-04-15T16:56:29.729Z,101417.81
2023-04-15T16:58:56.890Z,101416.13
2023-04-15T17:01:24.064Z,101422.25
2023-04-15T17:03:54.026Z,101430.59
2023-04-15T17:06:22.599Z,101438.41
2023-04-15T17:08:49.793Z,101440.94
2023-04-15T17:11:19.641Z,101430.63
2023-04-15T17:13:49.106Z,101440.94
2023-04-15T17:16:16.627Z,101432.88
2023-04-15T17:18:47.608Z,101439.81
2023-04-15T17:21:26.305Z,101445.16
2023-04-15T17:23:59.758Z,101439.03
2023-04-15T17:26:37.171Z,101429.53
2023-04-15T17:29:06.131Z,101428.97
2023-04-15T17:31:43.801Z,101439.81
2023-04-15T17:34:50.240Z,101442.09
2023-04-15T17:37:38.099Z,101444.31
2023-04-15T17:40:25.094Z,101449.59
2023-04-15T17:43:12.087Z,101438.44
2023-04-15T17:45:59.658Z,101446.28
2023-04-15T17:48:47.519Z,101456.88
2023-04-15T17:51:34.462Z,101463.59
2023-04-15T17:54:27.566Z,101464.44
2023-04-15T17:57:15.039Z,101464.69
2023-04-15T18:00:02.430Z,101442.94
2023-04-15T18:02:59.530Z,101472.25
2023-04-15T18:05:47.108Z,101478.38
2023-04-15T18:08:34.267Z,101475.28
2023-04-15T18:11:21.331Z,101476.94
2023-04-15T18:14:08.343Z,101471.59
2023-04-15T18:16:55.547Z,101489.75
2023-04-15T18:19:43.701Z,101476.09
2023-04-15T18:22:15.791Z,101496.44
2023-04-15T18:24:43.135Z,101494.78
2023-04-15T18:27:10.605Z,101489.75
2023-04-15T18:29:37.942Z,101500.94
2023-04-15T18:32:05.430Z,101497.63
2023-04-15T18:34:33.664Z,101494.56
2023-04-15T18:37:01.574Z,101499.03
2023-04-15T18:39:29.476Z,101491.75
2023-04-15T18:41:59.638Z,101488.09
2023-04-15T18:44:26.942Z,101497.59
2023-04-15T18:46:54.436Z,101472.72
2023-04-15T18:49:21.786Z,101501.25
2023-04-15T18:51:48.928Z,101494.28
2023-04-15T18:54:16.191Z,101494.28
2023-04-15T18:56:43.350Z,101489.81
2023-04-15T18:59:28.526Z,101504.31
2023-04-15T19:01:59.909Z,101495.13
2023-04-15T19:04:29.341Z,101494.88
2023-04-15T19:06:57.131Z,101501.00
2023-04-15T19:09:24.303Z,101486.50
2023-04-15T19:11:51.459Z,101490.66
2023-04-15T19:14:18.709Z,101494.56
2023-04-15T19:16:46.802Z,101510.50
2023-04-15T19:19:17.333Z,101502.69
2023-04-15T19:21:46.793Z,101514.94
2023-04-15T19:24:14.265Z,101514.41
2023-04-15T19:26:41.333Z,101508.78
2023-04-15T19:29:08.593Z,101508.25
2023-04-15T19:31:35.785Z,101510.22
2023-04-15T19:34:02.840Z,101523.06
2023-04-15T19:36:30.577Z,101519.16
2023-04-15T19:38:59.204Z,101507.13
2023-04-15T19:41:26.755Z,101503.47
2023-04-15T19:43:53.875Z,101519.66
2023-04-15T19:46:21.498Z,101532.78
2023-04-15T19:48:48.631Z,101522.75
2023-04-15T19:51:15.980Z,101517.13
2023-04-15T19:53:43.708Z,101540.03
2023-04-15T19:56:11.091Z,101514.31
2023-04-15T19:58:38.566Z,101536.13
2023-04-15T20:01:05.920Z,101520.50
2023-04-15T20:03:33.292Z,101517.97
2023-04-15T20:06:00.758Z,101523.31
2023-04-15T20:08:27.963Z,101512.41
2023-04-15T20:10:55.332Z,101526.41
2023-04-15T20:13:22.337Z,101528.38
2023-04-15T20:15:50.233Z,101523.31
2023-04-15T20:18:17.863Z,101525.75
2023-04-15T20:20:45.052Z,101522.69
2023-04-15T20:23:12.387Z,101528.78
2023-04-15T20:25:39.709Z,101528.22
2023-04-15T20:28:06.868Z,101529.84
2023-04-15T20:30:34.352Z,101524.72
2023-04-15T20:33:01.760Z,101540.69
2023-04-15T20:35:31.187Z,101533.16
2023-04-15T20:37:59.889Z,101547.41
2023-04-15T20:40:27.059Z,101520.81
2023-04-15T20:42:54.466Z,101533.13
2023-04-15T20:45:22.270Z,101525.91
2023-04-15T20:47:49.591Z,101548.03
2023-04-15T20:50:16.710Z,101531.56
2023-04-15T20:52:43.822Z,101539.31
2023-04-15T20:55:11.060Z,101545.97
2023-04-15T20:57:38.256Z,101542.38
2023-04-15T21:00:06.292Z,101549.91
2023-04-15T21:02:37.092Z,101550.97
2023-04-15T21:05:04.596Z,101549.81
2023-04-15T21:07:31.910Z,101553.25
2023-04-15T21:09:59.183Z,101563.88
2023-04-15T21:12:26.441Z,101563.56
2023-04-15T21:14:53.575Z,101553.81
2023-04-15T21:17:22.789Z,101567.53
2023-04-15T21:19:51.072Z,101558.41
2023-04-15T21:22:18.481Z,101566.78
2023-04-15T21:24:45.590Z,101557.78
2023-04-15T21:27:12.642Z,101558.09
2023-04-15T21:29:40.608Z,101554.38
2023-04-15T21:32:07.966Z,101559.09
2023-04-15T21:34:35.137Z,101558.53
2023-04-15T21:37:02.482Z,101550.44
2023-04-15T21:39:29.651Z,101572.19
2023-04-15T21:41:58.009Z,101571.66
2023-04-15T21:44:26.181Z,101563.03
2023-04-15T21:46:53.393Z,101575.06
2023-04-15T21:49:20.794Z,101572.78
2023-04-15T21:51:48.414Z,101564.97
2023-04-15T21:54:15.808Z,101569.16
2023-04-15T21:56:43.214Z,101573.09
2023-04-15T21:59:11.222Z,101575.63
2023-04-15T22:01:38.473Z,101577.59
2023-04-15T22:04:07.555Z,101561.13
2023-04-15T22:06:35.058Z,101561.66
2023-04-15T22:09:02.192Z,101549.38
2023-04-15T22:11:30.953Z,101554.41
2023-04-15T22:13:59.470Z,101559.22
2023-04-15T22:16:27.328Z,101561.16
2023-04-15T22:18:55.396Z,101547.69
2023-04-15T22:21:22.936Z,101569.22
2023-04-15T22:23:51.257Z,101534.09
2023-04-15T22:26:19.001Z,101565.31
2023-04-15T22:28:46.100Z,101560.06
2023-04-15T22:31:14.976Z,101559.53
2023-04-15T22:33:42.157Z,101555.53
2023-04-15T22:36:09.622Z,101556.63
2023-04-15T22:38:36.926Z,101548.88
2023-04-15T22:41:04.051Z,101557.72
2023-04-15T22:43:31.126Z,101555.75
2023-04-15T22:45:58.380Z,101556.00
2023-04-15T22:48:25.637Z,101543.38
2023-04-15T22:50:53.084Z,101546.44
2023-04-15T22:53:20.246Z,101533.97
2023-04-15T22:55:48.464Z,101552.50
2023-04-15T22:58:17.264Z,101546.28
2023-04-15T23:00:46.234Z,101542.66
2023-04-15T23:03:13.606Z,101558.59
2023-04-15T23:05:41.366Z,101560.50
2023-04-15T23:08:08.758Z,101546.28
2023-04-15T23:10:36.312Z,101552.38
2023-04-15T23:13:03.610Z,101527.03
2023-04-15T23:15:30.937Z,101541.00
2023-04-15T23:17:58.195Z,101539.38
2023-04-15T23:20:25.428Z,101551.16
2023-04-15T23:22:52.558Z,101556.13
2023-04-15T23:25:22.488Z,101537.16
2023-04-15T23:27:49.748Z,101546.38
2023-04-15T23:30:16.928Z,101552.28
2023-04-15T23:32:44.098Z,101538.31
2023-04-15T23:35:11.384Z,101546.44
2023-04-15T23:37:38.586Z,101553.97
2023-04-15T23:40:06.869Z,101552.84
2023-04-15T23:42:34.057Z,101542.78
2023-04-15T23:45:01.308Z,101555.34
2023-04-15T23:47:30.812Z,101559.44
2023-04-15T23:49:57.983Z,101570.06
2023-04-15T23:52:25.205Z,101556.59
2023-04-15T23:54:52.412Z,101568.84
2023-04-15T23:57:19.575Z,101573.97
2023-04-15T23:59:46.808Z,101578.38
